Terminal Aerodrome Forecast
Issued by NWS

Home | Current Version | Previous Version | Text Only | Print | Product List | Glossary Off
Versions: 1 2 3 4 5 6 7 8 9 10 11 12 13 14

000
FTUS42 KMHX 252330
TAFOAJ
TAF
KOAJ 252330Z 2600/2624 VRB03KT 5SM -TSRA OVC025CB
      TEMPO 2600/2601 1SM -TSRA OVC009CB
     FM260100 04004KT P6SM SCT050
     FM260800 VRB04KT P6SM FEW025 FEW250
     FM261300 09005KT P6SM SCT045
      AMD LTD TO CLD VIS AND WIND=

USA.gov is the U.S. government's official web portal to all federal, state and local government web resources and services.